San Diego, California
Traffic Map
Current Weather Conditions
San Diego, California
Broken Clouds
Broken Clouds
18°
Feels Like: 18°
Wind Chill: 18° Ceiling: 22000
Heat Index: 18° Visibility: 10mi
Dew Point: 12° Wind: 10mph
Humidity: 68% Direction: 320° (NW)
Pressure: 30.22in Gusts: 0mph
Raw Report DataKSAN 220051Z 32009KT 10SM FEW008 FEW070 SCT150 BKN220 18/12 A3022 RMK AO2 SLP232 T01830122
Traffic Incident Summary
Active as of:
Severity:
Category:
InformationThere was an issue retrieving the traffic information for this location. Please try a different location or try again shortly.
Advertisements
Track Severe Weather on mobile